createdAt,value
2019-06-01T00:00:29.927Z,14.40
2019-06-01T00:02:57.991Z,14.40
2019-06-01T00:05:26.074Z,14.30
2019-06-01T00:07:54.138Z,14.40
2019-06-01T00:10:22.228Z,14.50
2019-06-01T00:12:51.057Z,14.50
2019-06-01T00:15:19.196Z,14.50
2019-06-01T00:17:47.994Z,14.60
2019-06-01T00:20:15.368Z,14.50
2019-06-01T00:22:43.431Z,14.40
2019-06-01T00:25:11.478Z,14.30
2019-06-01T00:27:40.485Z,14.20
2019-06-01T00:30:08.339Z,14.20
2019-06-01T00:32:37.122Z,14.10
2019-06-01T00:35:06.032Z,14.00
2019-06-01T00:37:34.182Z,14.00
2019-06-01T00:40:03.156Z,14.10
2019-06-01T00:42:31.130Z,14.00
2019-06-01T00:44:59.158Z,14.00
2019-06-01T00:47:27.291Z,13.90
2019-06-01T00:49:56.206Z,13.80
2019-06-01T00:52:24.274Z,13.70
2019-06-01T00:54:53.500Z,13.80
2019-06-01T00:57:22.247Z,13.80
2019-06-01T00:59:48.460Z,13.80
2019-06-01T01:02:16.542Z,13.80
2019-06-01T01:04:44.564Z,13.90
2019-06-01T01:07:12.666Z,14.00
2019-06-01T01:09:41.523Z,13.80
2019-06-01T01:12:09.629Z,13.80
2019-06-01T01:14:38.517Z,13.70
2019-06-01T01:17:07.448Z,13.70
2019-06-01T01:19:35.477Z,13.70
2019-06-01T01:22:03.522Z,13.70
2019-06-01T01:24:31.538Z,13.70
2019-06-01T01:26:59.587Z,13.80
2019-06-01T01:29:28.476Z,13.80
2019-06-01T01:31:57.434Z,13.80
2019-06-01T01:34:25.428Z,13.80
2019-06-01T01:36:54.412Z,13.70
2019-06-01T01:39:22.262Z,13.70
2019-06-01T01:41:50.364Z,13.50
2019-06-01T01:44:19.311Z,13.70
2019-06-01T01:46:48.569Z,13.70
2019-06-01T01:49:15.460Z,13.70
2019-06-01T01:51:43.496Z,13.60
2019-06-01T01:54:11.542Z,13.50
2019-06-01T01:56:39.616Z,13.50
2019-06-01T01:59:07.712Z,13.50
2019-06-01T02:01:35.729Z,13.40
2019-06-01T02:04:04.548Z,13.60
2019-06-01T02:06:32.572Z,13.50
2019-06-01T02:09:01.759Z,13.50
2019-06-01T02:11:28.745Z,13.60
2019-06-01T02:13:57.837Z,13.60
2019-06-01T02:16:25.593Z,13.50
2019-06-01T02:18:55.970Z,13.40
2019-06-01T02:21:22.576Z,13.50
2019-06-01T02:23:52.777Z,13.30
2019-06-01T02:26:19.425Z,13.30
2019-06-01T02:28:48.202Z,13.10
2019-06-01T02:31:16.992Z,13.10
2019-06-01T02:33:45.838Z,13.30
2019-06-01T02:36:13.845Z,13.20
2019-06-01T02:38:42.787Z,13.20
2019-06-01T02:41:10.818Z,13.20
2019-06-01T02:43:39.605Z,13.00
2019-06-01T02:46:07.746Z,13.00
2019-06-01T02:48:36.466Z,12.80
2019-06-01T02:51:05.511Z,12.70
2019-06-01T02:53:32.651Z,12.70
2019-06-01T02:56:02.126Z,12.80
2019-06-01T02:58:29.701Z,12.90
2019-06-01T03:01:05.246Z,12.80
2019-06-01T03:03:33.289Z,12.80
2019-06-01T03:06:03.435Z,12.90
2019-06-01T03:08:30.975Z,12.90
2019-06-01T03:10:59.757Z,13.00
2019-06-01T03:13:28.535Z,13.10
2019-06-01T03:15:56.615Z,13.10
2019-06-01T03:18:25.417Z,12.80
2019-06-01T03:20:53.461Z,12.80
2019-06-01T03:23:22.295Z,12.80
2019-06-01T03:25:50.459Z,12.80
2019-06-01T03:28:18.497Z,12.70
2019-06-01T03:30:47.332Z,12.70
2019-06-01T03:33:15.354Z,12.70
2019-06-01T03:35:44.142Z,12.70
2019-06-01T03:38:12.233Z,12.70
2019-06-01T03:40:40.305Z,12.60
2019-06-01T03:43:09.362Z,12.50
2019-06-01T03:45:37.101Z,12.50
2019-06-01T03:48:05.129Z,12.40
2019-06-01T03:50:33.160Z,12.40
2019-06-01T03:53:01.968Z,12.60
2019-06-01T03:55:30.782Z,12.60
2019-06-01T03:57:58.815Z,12.60
2019-06-01T04:00:26.923Z,12.60
2019-06-01T04:02:54.948Z,12.60
2019-06-01T04:05:23.011Z,12.70
2019-06-01T04:07:51.030Z,12.80
2019-06-01T04:10:19.087Z,13.00
2019-06-01T04:12:47.146Z,13.00
2019-06-01T04:15:16.864Z,13.20
2019-06-01T04:17:44.139Z,13.20
2019-06-01T04:20:12.367Z,13.50
2019-06-01T04:22:40.959Z,13.70
2019-06-01T04:25:10.317Z,13.80
2019-06-01T04:27:37.808Z,13.80
2019-06-01T04:30:06.754Z,14.10
2019-06-01T04:32:48.899Z,14.20
2019-06-01T04:35:03.264Z,14.20
2019-06-01T04:37:30.309Z,14.10
2019-06-01T04:39:58.377Z,14.20
2019-06-01T04:42:26.434Z,14.50
2019-06-01T04:44:55.346Z,14.90
2019-06-01T04:47:23.367Z,14.80
2019-06-01T04:49:51.448Z,14.90
2019-06-01T04:52:19.799Z,15.00
2019-06-01T04:54:47.825Z,15.10
2019-06-01T04:57:16.617Z,16.20
2019-06-01T04:59:44.649Z,16.10
2019-06-01T05:02:13.173Z,16.30
2019-06-01T05:04:43.571Z,16.10
2019-06-01T05:07:09.635Z,16.10
2019-06-01T05:09:37.695Z,16.50
2019-06-01T05:12:05.753Z,17.90
2019-06-01T05:14:33.794Z,19.20
2019-06-01T05:17:01.854Z,19.50
2019-06-01T05:19:29.853Z,19.40
2019-06-01T05:21:58.761Z,18.10
2019-06-01T05:24:26.818Z,18.10
2019-06-01T05:26:56.329Z,20.60
2019-06-01T05:29:24.393Z,20.60
2019-06-01T05:31:53.316Z,21.60
2019-06-01T05:34:21.408Z,21.60
2019-06-01T05:36:49.433Z,21.70
2019-06-01T05:39:18.798Z,22.00
2019-06-01T05:41:46.510Z,21.40
2019-06-01T05:44:14.938Z,21.40
2019-06-01T05:46:42.648Z,21.60
2019-06-01T05:49:12.012Z,21.50
2019-06-01T05:51:38.793Z,21.50
2019-06-01T05:54:07.560Z,21.50
2019-06-01T05:56:35.571Z,21.50
2019-06-01T05:59:03.609Z,21.50
2019-06-01T06:01:31.644Z,21.30
2019-06-01T06:03:59.663Z,21.30
2019-06-01T06:06:27.677Z,21.20
2019-06-01T06:08:55.780Z,21.40
2019-06-01T06:11:23.813Z,21.60
2019-06-01T06:13:53.356Z,22.20
2019-06-01T06:16:22.590Z,22.20
2019-06-01T06:18:49.522Z,22.20
2019-06-01T06:21:18.535Z,21.60
2019-06-01T06:23:47.094Z,21.10
2019-06-01T06:26:16.806Z,21.10
2019-06-01T06:28:43.914Z,21.20
2019-06-01T06:31:12.954Z,21.20
2019-06-01T06:33:53.391Z,22.20
2019-06-01T06:36:08.112Z,25.40
2019-06-01T06:38:36.224Z,27.70
2019-06-01T06:41:04.306Z,29.90
2019-06-01T06:43:33.262Z,31.30
2019-06-01T06:46:01.708Z,31.10
2019-06-01T06:48:29.733Z,31.10
2019-06-01T06:50:57.785Z,31.20
2019-06-01T06:53:34.465Z,31.20
2019-06-01T06:55:54.746Z,31.20
2019-06-01T06:58:24.459Z,32.40
2019-06-01T07:00:51.674Z,32.30
2019-06-01T07:03:21.008Z,31.50
2019-06-01T07:05:47.937Z,30.50
2019-06-01T07:08:16.028Z,30.10
2019-06-01T07:10:44.107Z,29.90
2019-06-01T07:13:12.236Z,30.70
2019-06-01T07:15:41.083Z,31.90
2019-06-01T07:18:09.166Z,31.90
2019-06-01T07:20:37.217Z,30.90
2019-06-01T07:23:05.289Z,31.00
2019-06-01T07:25:33.334Z,32.60
2019-06-01T07:28:02.136Z,32.50
2019-06-01T07:30:30.168Z,32.50
2019-06-01T07:32:59.016Z,32.70
2019-06-01T07:35:27.049Z,32.70
2019-06-01T07:37:55.973Z,30.60
2019-06-01T07:40:24.797Z,30.60
2019-06-01T07:42:52.797Z,28.80
2019-06-01T07:45:20.881Z,28.70
2019-06-01T07:47:48.870Z,30.00
2019-06-01T07:50:17.074Z,29.10
2019-06-01T07:52:45.050Z,29.70
2019-06-01T07:55:13.053Z,29.10
2019-06-01T07:57:43.393Z,30.80
2019-06-01T08:00:10.666Z,30.00
2019-06-01T08:02:38.732Z,29.90
2019-06-01T08:05:06.767Z,30.00
2019-06-01T08:07:34.814Z,30.50
2019-06-01T08:10:02.832Z,31.40
2019-06-01T08:12:31.658Z,31.90
2019-06-01T08:14:58.977Z,31.00
2019-06-01T08:17:28.098Z,31.60
2019-06-01T08:19:55.793Z,31.60
2019-06-01T08:22:25.897Z,30.90
2019-06-01T08:24:53.473Z,31.60
2019-06-01T08:27:22.478Z,30.80
2019-06-01T08:29:50.344Z,30.80
2019-06-01T08:32:18.426Z,29.70
2019-06-01T08:34:46.490Z,29.60
2019-06-01T08:37:14.550Z,29.50
2019-06-01T08:39:42.585Z,28.20
2019-06-01T08:42:10.684Z,27.80
2019-06-01T08:44:38.749Z,27.90
2019-06-01T08:47:07.645Z,28.70
2019-06-01T08:49:36.475Z,29.10
2019-06-01T08:52:04.512Z,29.10
2019-06-01T08:54:32.546Z,29.10
2019-06-01T08:57:00.572Z,28.50
2019-06-01T08:59:28.649Z,27.60
2019-06-01T09:01:56.685Z,28.90
2019-06-01T09:04:24.750Z,30.80
2019-06-01T09:06:52.749Z,30.70
2019-06-01T09:09:20.796Z,30.20
2019-06-01T09:11:49.620Z,29.70
2019-06-01T09:14:17.634Z,29.60
2019-06-01T09:16:45.667Z,30.80
2019-06-01T09:19:13.693Z,30.90
2019-06-01T09:21:41.766Z,30.80
2019-06-01T09:24:09.841Z,31.00
2019-06-01T09:26:37.878Z,30.50
2019-06-01T09:29:05.986Z,30.40
2019-06-01T09:31:34.374Z,30.10
2019-06-01T09:34:02.845Z,30.00
2019-06-01T09:36:40.837Z,30.00
2019-06-01T09:39:10.651Z,29.60
2019-06-01T09:41:38.685Z,29.60
2019-06-01T09:44:06.747Z,29.80
2019-06-01T09:46:35.632Z,29.50
2019-06-01T09:49:02.952Z,29.20
2019-06-01T09:51:31.394Z,29.10
2019-06-01T09:53:59.117Z,29.20
2019-06-01T09:56:29.024Z,28.90
2019-06-01T09:58:55.208Z,28.00
2019-06-01T10:01:23.284Z,27.50
2019-06-01T10:03:51.726Z,28.30
2019-06-01T10:06:19.666Z,29.20
2019-06-01T10:08:47.680Z,29.30
2019-06-01T10:11:16.615Z,28.70
2019-06-01T10:13:44.668Z,28.70
2019-06-01T10:16:12.759Z,28.80
2019-06-01T10:18:40.786Z,28.90
2019-06-01T10:21:09.588Z,28.40
2019-06-01T10:23:38.495Z,28.40
2019-06-01T10:26:06.459Z,27.60
2019-06-01T10:28:35.725Z,27.60
2019-06-01T10:31:02.589Z,28.00
2019-06-01T10:33:30.712Z,27.20
2019-06-01T10:35:58.767Z,27.20
2019-06-01T10:38:26.832Z,27.50
2019-06-01T10:40:54.858Z,27.90
2019-06-01T10:43:23.968Z,27.00
2019-06-01T10:45:51.998Z,27.00
2019-06-01T10:48:20.060Z,26.90
2019-06-01T10:50:48.093Z,27.70
2019-06-01T10:53:16.836Z,27.30
2019-06-01T10:55:44.912Z,27.30
2019-06-01T10:58:14.442Z,25.70
2019-06-01T11:00:49.407Z,25.70
2019-06-01T11:03:10.711Z,24.90
2019-06-01T11:05:38.865Z,26.00
2019-06-01T11:08:07.537Z,25.50
2019-06-01T11:10:36.860Z,24.50
2019-06-01T11:13:04.535Z,24.50
2019-06-01T11:15:32.909Z,24.10
2019-06-01T11:18:00.635Z,25.10
2019-06-01T11:20:29.531Z,27.40
2019-06-01T11:22:57.620Z,27.40
2019-06-01T11:25:26.484Z,27.10
2019-06-01T11:27:54.603Z,27.10
2019-06-01T11:30:22.790Z,25.60
2019-06-01T11:32:50.910Z,25.00
2019-06-01T11:35:19.838Z,25.60
2019-06-01T11:37:47.995Z,25.50
2019-06-01T11:40:16.063Z,26.30
2019-06-01T11:42:45.078Z,26.80
2019-06-01T11:45:12.164Z,26.40
2019-06-01T11:47:41.104Z,25.40
2019-06-01T11:50:09.136Z,25.30
2019-06-01T11:52:39.097Z,26.60
2019-06-01T11:55:05.988Z,26.60
2019-06-01T11:57:35.234Z,27.60
2019-06-01T12:00:08.389Z,27.70
2019-06-01T12:02:37.478Z,27.70
2019-06-01T12:05:05.508Z,25.90
2019-06-01T12:07:33.525Z,26.00
2019-06-01T12:10:01.580Z,26.50
2019-06-01T12:12:30.507Z,27.30
2019-06-01T12:14:58.525Z,27.20
2019-06-01T12:17:26.533Z,27.40
2019-06-01T12:19:55.322Z,27.80
2019-06-01T12:22:23.348Z,27.80
2019-06-01T12:24:51.384Z,27.60
2019-06-01T12:27:19.405Z,26.50
2019-06-01T12:29:52.346Z,25.20
2019-06-01T12:32:16.473Z,25.20
2019-06-01T12:34:46.247Z,25.80
2019-06-01T12:37:13.462Z,25.80
2019-06-01T12:39:42.332Z,26.00
2019-06-01T12:42:09.614Z,26.20
2019-06-01T12:44:37.644Z,26.40
2019-06-01T12:47:05.704Z,26.50
2019-06-01T12:49:34.605Z,25.90
2019-06-01T12:52:03.496Z,26.10
2019-06-01T12:54:31.572Z,26.10
2019-06-01T12:56:59.670Z,26.00
2019-06-01T12:59:27.715Z,25.90
2019-06-01T13:01:55.754Z,26.00
2019-06-01T13:04:23.808Z,25.60
2019-06-01T13:06:52.992Z,25.00
2019-06-01T13:09:20.734Z,25.40
2019-06-01T13:11:49.485Z,25.40
2019-06-01T13:14:16.852Z,26.30
2019-06-01T13:16:54.469Z,26.60
2019-06-01T13:19:13.012Z,26.30
2019-06-01T13:21:41.385Z,26.30
2019-06-01T13:24:09.158Z,26.20
2019-06-01T13:26:37.222Z,26.20
2019-06-01T13:29:05.284Z,26.00
2019-06-01T13:31:33.325Z,26.60
2019-06-01T13:34:02.170Z,26.60
2019-06-01T13:36:30.200Z,26.50
2019-06-01T13:38:58.239Z,26.30
2019-06-01T13:41:26.269Z,26.20
2019-06-01T13:43:54.401Z,26.00
2019-06-01T13:46:22.454Z,25.80
2019-06-01T13:48:52.530Z,25.70
2019-06-01T13:51:18.722Z,25.40
2019-06-01T13:53:48.468Z,25.50
2019-06-01T13:56:16.404Z,25.40
2019-06-01T13:58:44.438Z,25.40
2019-06-01T14:01:12.462Z,25.50
2019-06-01T14:03:40.516Z,25.70
2019-06-01T14:06:08.510Z,25.70
2019-06-01T14:08:36.582Z,25.90
2019-06-01T14:11:04.634Z,26.00
2019-06-01T14:13:32.969Z,26.10
2019-06-01T14:16:00.997Z,25.90
2019-06-01T14:18:29.066Z,26.10
2019-06-01T14:20:57.117Z,26.50
2019-06-01T14:23:25.167Z,26.50
2019-06-01T14:25:54.280Z,26.70
2019-06-01T14:28:21.655Z,26.00
2019-06-01T14:30:50.222Z,25.30
2019-06-01T14:33:17.745Z,25.00
2019-06-01T14:35:46.518Z,25.30
2019-06-01T14:38:13.847Z,25.40
2019-06-01T14:40:41.928Z,24.80
2019-06-01T14:43:09.957Z,24.80
2019-06-01T14:45:38.729Z,24.90
2019-06-01T14:48:07.613Z,24.70
2019-06-01T14:50:36.543Z,24.80
2019-06-01T14:53:04.570Z,24.80
2019-06-01T14:55:32.666Z,25.30
2019-06-01T14:58:00.713Z,25.10
2019-06-01T15:00:29.552Z,25.80
2019-06-01T15:02:58.427Z,25.70
2019-06-01T15:05:25.661Z,25.60
2019-06-01T15:07:54.287Z,25.70
2019-06-01T15:10:21.833Z,25.70
2019-06-01T15:12:54.514Z,25.60
2019-06-01T15:15:18.865Z,25.10
2019-06-01T15:17:49.216Z,25.30
2019-06-01T15:20:17.081Z,25.50
2019-06-01T15:22:45.174Z,25.50
2019-06-01T15:25:13.190Z,25.80
2019-06-01T15:27:41.181Z,25.90
2019-06-01T15:30:09.225Z,26.20
2019-06-01T15:32:37.263Z,26.40
2019-06-01T15:35:05.399Z,26.20
2019-06-01T15:37:33.438Z,26.20
2019-06-01T15:40:01.493Z,26.20
2019-06-01T15:42:29.582Z,26.00
2019-06-01T15:44:57.692Z,25.70
2019-06-01T15:47:25.821Z,25.60
2019-06-01T15:49:53.853Z,25.70
2019-06-01T15:52:21.911Z,25.70
2019-06-01T15:54:50.064Z,25.80
2019-06-01T15:57:18.114Z,25.90
2019-06-01T15:59:46.161Z,25.90
2019-06-01T16:02:14.962Z,25.70
2019-06-01T16:04:43.003Z,25.70
2019-06-01T16:07:11.071Z,25.60
2019-06-01T16:09:43.210Z,25.60
2019-06-01T16:12:07.142Z,25.70
2019-06-01T16:14:35.130Z,25.70
2019-06-01T16:17:04.616Z,25.60
2019-06-01T16:19:31.666Z,25.60
2019-06-01T16:22:00.325Z,25.60
2019-06-01T16:24:27.794Z,25.50
2019-06-01T16:26:56.698Z,25.50
2019-06-01T16:29:24.773Z,25.50
2019-06-01T16:31:52.813Z,25.50
2019-06-01T16:34:21.717Z,25.60
2019-06-01T16:36:49.799Z,25.60
2019-06-01T16:39:17.866Z,25.60
2019-06-01T16:41:46.645Z,25.60
2019-06-01T16:44:14.700Z,25.60
2019-06-01T16:46:42.798Z,25.60
2019-06-01T16:49:10.972Z,25.60
2019-06-01T16:51:47.973Z,25.60
2019-06-01T16:54:16.111Z,25.60
2019-06-01T16:56:45.005Z,25.60
2019-06-01T16:59:13.024Z,25.60
2019-06-01T17:01:41.146Z,25.50
2019-06-01T17:04:09.226Z,25.30
2019-06-01T17:06:37.274Z,25.30
2019-06-01T17:09:07.041Z,25.20
2019-06-01T17:11:34.149Z,25.20
2019-06-01T17:14:02.853Z,25.20
2019-06-01T17:16:31.081Z,24.90
2019-06-01T17:18:59.082Z,24.90
2019-06-01T17:21:27.890Z,24.70
2019-06-01T17:23:55.941Z,24.60
2019-06-01T17:26:24.009Z,24.60
2019-06-01T17:28:52.044Z,24.50
2019-06-01T17:31:20.077Z,24.50
2019-06-01T17:33:48.221Z,24.40
2019-06-01T17:36:16.229Z,24.40
2019-06-01T17:38:44.366Z,24.30
2019-06-01T17:41:12.643Z,24.30
2019-06-01T17:43:40.498Z,24.30
2019-06-01T17:46:10.142Z,24.40
2019-06-01T17:48:38.068Z,24.30
2019-06-01T17:51:06.964Z,24.30
2019-06-01T17:53:35.761Z,24.30
2019-06-01T17:56:03.990Z,24.30
2019-06-01T17:58:31.902Z,24.20
2019-06-01T18:00:59.961Z,24.20
2019-06-01T18:03:27.992Z,24.20
2019-06-01T18:05:56.131Z,24.10
2019-06-01T18:08:24.202Z,23.90
2019-06-01T18:10:54.303Z,23.80
2019-06-01T18:13:20.417Z,23.80
2019-06-01T18:15:50.085Z,23.80
2019-06-01T18:18:16.553Z,23.80
2019-06-01T18:20:44.619Z,23.80
2019-06-01T18:23:13.389Z,23.80
2019-06-01T18:25:40.729Z,23.80
2019-06-01T18:28:14.982Z,23.70
2019-06-01T18:30:37.620Z,23.50
2019-06-01T18:33:06.949Z,23.50
2019-06-01T18:35:33.669Z,23.30
2019-06-01T18:38:01.702Z,23.20
2019-06-01T18:40:29.739Z,23.20
2019-06-01T18:42:58.695Z,23.10
2019-06-01T18:45:26.705Z,22.90
2019-06-01T18:47:54.848Z,22.90
2019-06-01T18:50:22.919Z,22.70
2019-06-01T18:52:51.081Z,22.70
2019-06-01T18:55:19.849Z,22.50
2019-06-01T18:57:48.337Z,22.40
2019-06-01T19:00:17.139Z,22.20
2019-06-01T19:02:45.212Z,22.10
2019-06-01T19:05:13.394Z,22.00
2019-06-01T19:07:41.450Z,21.90
2019-06-01T19:10:12.411Z,21.70
2019-06-01T19:12:39.134Z,21.50
2019-06-01T19:15:13.888Z,21.50
2019-06-01T19:17:36.078Z,21.50
2019-06-01T19:20:04.141Z,21.40
2019-06-01T19:22:32.949Z,21.00
2019-06-01T19:25:01.003Z,21.00
2019-06-01T19:27:29.904Z,20.70
2019-06-01T19:29:57.974Z,20.70
2019-06-01T19:32:26.059Z,20.70
2019-06-01T19:34:54.128Z,20.50
2019-06-01T19:37:22.184Z,20.30
2019-06-01T19:39:50.254Z,20.30
2019-06-01T19:42:18.329Z,20.20
2019-06-01T19:44:47.253Z,20.40
2019-06-01T19:47:16.045Z,20.30
2019-06-01T19:49:44.084Z,20.40
2019-06-01T19:52:12.477Z,20.20
2019-06-01T19:54:40.102Z,20.00
2019-06-01T19:57:08.138Z,20.00
2019-06-01T19:59:36.271Z,19.90
2019-06-01T20:02:04.408Z,19.90
2019-06-01T20:04:32.417Z,19.80
2019-06-01T20:07:00.510Z,19.90
2019-06-01T20:09:28.537Z,20.10
2019-06-01T20:12:02.078Z,20.10
2019-06-01T20:14:24.688Z,20.10
2019-06-01T20:16:52.759Z,20.00
2019-06-01T20:19:21.855Z,19.90
2019-06-01T20:21:48.797Z,19.90
2019-06-01T20:24:17.377Z,19.90
2019-06-01T20:26:49.104Z,19.80
2019-06-01T20:29:14.061Z,19.70
2019-06-01T20:31:42.066Z,19.70
2019-06-01T20:34:10.160Z,19.70
2019-06-01T20:36:38.170Z,19.60
2019-06-01T20:39:06.205Z,19.50
2019-06-01T20:41:34.269Z,19.40
2019-06-01T20:44:02.398Z,19.40
2019-06-01T20:46:30.522Z,19.50
2019-06-01T20:48:58.553Z,19.40
2019-06-01T20:51:27.852Z,19.30
2019-06-01T20:53:54.731Z,19.30
2019-06-01T20:56:23.663Z,19.20
2019-06-01T20:58:52.409Z,19.20
2019-06-01T21:01:21.824Z,19.10
2019-06-01T21:03:48.542Z,19.10
2019-06-01T21:06:18.472Z,19.00
2019-06-01T21:08:45.484Z,19.00
2019-06-01T21:11:13.933Z,19.10
2019-06-01T21:13:41.646Z,19.20
2019-06-01T21:16:11.248Z,19.00
2019-06-01T21:18:39.320Z,19.00
2019-06-01T21:21:08.261Z,18.90
2019-06-01T21:23:36.293Z,18.90
2019-06-01T21:26:05.210Z,18.70
2019-06-01T21:28:33.242Z,18.70
2019-06-01T21:31:01.315Z,18.60
2019-06-01T21:33:30.196Z,18.60
2019-06-01T21:35:59.126Z,18.60
2019-06-01T21:38:27.167Z,18.50
2019-06-01T21:40:55.270Z,18.50
2019-06-01T21:43:32.551Z,18.50
2019-06-01T21:45:51.364Z,18.40
2019-06-01T21:48:19.789Z,18.30
2019-06-01T21:50:47.515Z,18.20
2019-06-01T21:53:15.943Z,18.20
2019-06-01T21:55:44.476Z,18.20
2019-06-01T21:58:12.541Z,18.20
2019-06-01T22:00:41.433Z,18.30
2019-06-01T22:03:09.519Z,18.20
2019-06-01T22:05:37.545Z,18.20
2019-06-01T22:08:05.573Z,18.20
2019-06-01T22:10:33.651Z,18.10
2019-06-01T22:13:17.620Z,17.90
2019-06-01T22:15:30.477Z,17.60
2019-06-01T22:17:59.361Z,17.50
2019-06-01T22:20:28.293Z,17.40
2019-06-01T22:22:56.294Z,17.30
2019-06-01T22:25:24.561Z,17.20
2019-06-01T22:27:52.664Z,17.30
2019-06-01T22:30:26.370Z,17.40
2019-06-01T22:32:54.810Z,17.40
2019-06-01T22:35:22.929Z,17.40
2019-06-01T22:37:51.010Z,17.40
2019-06-01T22:40:19.381Z,17.40
2019-06-01T22:42:47.150Z,17.30
2019-06-01T22:45:15.196Z,17.30
2019-06-01T22:47:43.270Z,17.40
2019-06-01T22:50:12.175Z,17.30
2019-06-01T22:52:40.239Z,17.30
2019-06-01T22:55:08.330Z,17.20
2019-06-01T22:57:36.355Z,17.00
2019-06-01T23:00:05.200Z,16.80
2019-06-01T23:02:33.208Z,16.80
2019-06-01T23:05:01.322Z,16.70
2019-06-01T23:07:31.284Z,16.80
2019-06-01T23:09:58.888Z,16.90
2019-06-01T23:12:27.591Z,16.90
2019-06-01T23:14:55.063Z,16.90
2019-06-01T23:17:23.811Z,16.80
2019-06-01T23:19:51.260Z,16.90
2019-06-01T23:22:19.329Z,16.80
2019-06-01T23:24:48.132Z,16.90
2019-06-01T23:27:16.195Z,16.90
2019-06-01T23:29:44.973Z,16.90
2019-06-01T23:32:13.867Z,16.60
2019-06-01T23:34:42.776Z,16.50
2019-06-01T23:37:10.824Z,16.50
2019-06-01T23:39:39.805Z,16.60
2019-06-01T23:42:07.822Z,16.60
2019-06-01T23:44:35.849Z,16.40
2019-06-01T23:47:04.783Z,16.20
2019-06-01T23:49:34.069Z,16.20
2019-06-01T23:52:01.646Z,16.20
2019-06-01T23:54:29.692Z,16.10
2019-06-01T23:56:57.787Z,16.20
2019-06-01T23:59:27.937Z,16.30
